Latest Coastal Weather Observations for Cato Island

IDQ60701

Issued at 5:35 am EST Friday 1 August 2014 (issued every 10 minutes, with the page automatically refreshed every 10 minutes)

About coastal observations | Map of coastal stations | Coastal observations for QLD | Marine services | Other Formats
Station Details ID: 200601 Name: CATO ISLAND Lat: -23.25 Lon: 155.54 Height: 6.3 m
Data from the previous 72 hours. | See also: Recent months for locations in Queensland
Date/Time
EST
Temp

°C
Wind Pressure Rain
since 9am
mm
Weather Cloud Vis
km
Sea
Height
m
Swell
Dir
 
Speed
knots
Gust
knots
hPa Trend Height
m
Period
s
Dir
01/05:30am 21.3 NNE 14 16 1017.6 - - - - - - - - -
01/05:00am 21.2 NNE 14 16 1017.5 - - - - - - - - -
01/04:30am 21.3 NNE 14 17 1017.4 - - - - - - - - -
01/04:00am 21.2 NNE 12 14 1017.4 - - - - - - - - -
01/03:30am 21.2 NNE 15 18 1017.4 - - - - - - - - -
01/03:00am 21.3 NNE 17 19 1017.4 - - - - - - - - -
01/02:30am 21.3 NNE 16 19 1017.8 - - - - - - - - -
01/02:00am 21.3 NNE 17 19 1018.0 - - - - - - - - -
01/01:30am 21.4 NNE 18 22 1018.1 - - - - - - - - -
01/01:00am 21.4 NE 19 22 1018.2 - - - - - - - - -
01/12:30am 21.3 NE 21 24 1018.2 - - - - - - - - -
01/12:00am 21.2 NE 21 25 1018.5 - - - - - - - - -
 
Date/Time
EST
Temp

°C
Wind Pressure Rain
since 9am
mm
Weather Cloud Vis
km
Sea
Height
m
Swell
Dir
 
Speed
knots
Gust
knots
hPa Trend Height
m
Period
s
Dir
31/11:30pm 21.3 NNE 20 23 1018.8 - - - - - - - - -
31/11:00pm 21.3 NNE 19 24 1018.8 - - - - - - - - -
31/10:30pm 21.4 NNE 16 19 1019.1 - - - - - - - - -
31/10:00pm 21.5 NNE 15 18 1019.3 - - - - - - - - -
31/09:30pm 21.5 NNE 14 17 1019.5 - - - - - - - - -
31/09:00pm 21.6 NE 15 19 1019.6 - - - - - - - - -
31/08:30pm 21.5 NNE 16 19 1019.5 - - - - - - - - -
31/08:00pm 21.5 NE 15 18 1019.4 - - - - - - - - -
31/07:30pm 21.4 NE 16 19 1019.3 - - - - - - - - -
31/07:00pm 21.3 NE 16 19 1019.2 - - - - - - - - -
31/06:30pm 21.4 NE 16 18 1018.8 - - - - - - - - -
31/06:00pm 21.3 NE 15 17 1018.5 - - - - - - - - -
31/05:30pm 21.4 NE 15 17 1018.4 - - - - - - - - -
31/05:00pm 21.5 NE 14 17 1018.2 - - - - - - - - -
31/04:30pm 21.6 NE 13 16 1018.1 - - - - - - - - -
31/04:00pm 21.9 NE 15 17 1018.1 - - - - - - - - -
31/03:30pm 22.1 ENE 14 15 1018.0 - - - - - - - - -
31/03:00pm 22.1 ENE 14 17 1017.9 - - - - - - - - -
31/02:30pm 21.5 E 16 19 1018.0 - - - - - - - - -
31/02:00pm 21.6 ENE 17 19 1018.1 - - - - - - - - -
31/01:30pm 22.4 ENE 14 17 1018.6 - - - - - - - - -
31/01:00pm 22.7 ENE 12 16 1018.9 - - - - - - - - -
31/12:30pm 22.6 E 15 16 1019.2 - - - - - - - - -
31/12:00pm 22.6 E 13 15 1019.6 - - - - - - - - -
31/11:30am 22.5 E 12 14 1020.1 - - - - - - - - -
31/11:00am 22.6 E 12 13 1020.6 - - - - - - - - -
31/10:30am 22.7 ESE 11 14 1020.9 - - - - - - - - -
31/10:00am 22.3 ESE 11 12 1021.2 - - - - - - - - -
31/09:30am 22.2 E 11 13 1021.1 - - - - - - - - -
31/09:00am 22.4 ESE 12 14 1021.2 - - - - - - - - -
31/08:30am 22.3 E 11 13 1021.2 - - - - - - - - -
31/08:00am 22.0 E 10 11 1021.2 - - - - - - - - -
31/07:30am 21.8 E 9 11 1021.1 - - - - - - - - -
31/07:00am 21.7 E 10 12 1020.8 - - - - - - - - -
31/06:30am 21.3 NE 9 11 1020.8 - - - - - - - - -
31/06:00am 21.5 ENE 9 11 1020.7 - - - - - - - - -
31/05:30am 21.2 NE 11 14 1020.6 - - - - - - - - -
31/05:00am 21.1 NE 12 14 1020.4 - - - - - - - - -
31/04:30am 21.2 NE 12 13 1020.3 - - - - - - - - -
31/04:00am 21.1 NE 11 13 1020.1 - - - - - - - - -
31/03:30am 21.1 NE 12 13 1020.2 - - - - - - - - -
31/03:00am 21.0 NE 12 15 1020.2 - - - - - - - - -
31/02:30am 20.8 NE 13 15 1020.3 - - - - - - - - -
31/02:00am 20.9 NE 13 15 1020.6 - - - - - - - - -
31/01:30am 21.0 NE 13 15 1020.7 - - - - - - - - -
31/01:00am 21.0 ENE 12 15 1021.0 - - - - - - - - -
31/12:30am 21.0 ENE 12 14 1021.0 - - - - - - - - -
31/12:00am 20.8 ENE 12 14 1021.1 - - - - - - - - -
 
Date/Time
EST
Temp

°C
Wind Pressure Rain
since 9am
mm
Weather Cloud Vis
km
Sea
Height
m
Swell
Dir
 
Speed
knots
Gust
knots
hPa Trend Height
m
Period
s
Dir
30/11:30pm 20.9 ENE 14 16 1021.3 - - - - - - - - -
30/11:00pm 20.9 NE 13 15 1021.5 - - - - - - - - -
30/10:30pm 20.9 ENE 12 15 1021.6 - - - - - - - - -
30/10:00pm 20.9 ENE 13 16 1021.6 - - - - - - - - -
30/09:30pm 21.0 ENE 13 15 1021.5 - - - - - - - - -
30/09:00pm 20.8 ENE 14 16 1021.4 - - - - - - - - -
30/08:30pm 20.8 ENE 13 14 1021.3 - - - - - - - - -
30/08:00pm 20.7 NE 13 15 1021.4 - - - - - - - - -
30/07:30pm 20.7 ENE 13 14 1021.3 - - - - - - - - -
30/07:00pm 20.9 ENE 12 14 1021.2 - - - - - - - - -
30/06:30pm 20.8 ENE 11 13 1021.1 - - - - - - - - -
30/06:00pm 21.1 E 10 12 1020.9 - - - - - - - - -
30/05:30pm 21.3 E 8 10 1020.6 - - - - - - - - -
30/05:00pm 21.4 E 8 9 1020.4 - - - - - - - - -
30/04:30pm 21.2 E 9 11 1020.2 - - - - - - - - -
30/04:00pm 21.3 E 8 9 1020.2 - - - - - - - - -
30/03:30pm 21.4 E 8 10 1020.1 - - - - - - - - -
30/03:00pm 21.6 E 8 11 1020.2 - - - - - - - - -
30/02:30pm 21.6 ESE 10 12 1020.2 - - - - - - - - -
30/02:00pm 21.4 ESE 10 12 1020.4 - - - - - - - - -
30/01:30pm 21.5 ESE 10 14 1020.8 - - - - - - - - -
30/01:00pm 21.4 ESE 9 11 1021.1 - - - - - - - - -
30/12:30pm 21.6 SE 13 15 1021.4 - - - - - - - - -
30/12:00pm 21.6 ESE 11 13 1022.0 - - - - - - - - -
30/11:30am 21.6 ESE 9 11 1022.7 - - - - - - - - -
30/11:00am 21.6 ESE 9 10 1023.0 - - - - - - - - -
30/10:30am 21.6 E 8 9 1023.4 - - - - - - - - -
30/10:00am 21.5 SE 7 9 1023.7 - - - - - - - - -
30/09:30am 21.4 SE 7 9 1023.9 - - - - - - - - -
30/09:00am 21.4 E 5 7 1023.9 - - - - - - - - -
30/08:30am 21.4 SE 5 7 1023.6 - - - - - - - - -
30/08:00am 21.3 ESE 8 10 1023.4 - - - - - - - - -
30/07:30am 21.2 SE 7 9 1023.0 - - - - - - - - -
30/07:00am 21.1 SE 6 8 1022.8 - - - - - - - - -
30/06:30am 21.0 SE 6 8 1022.4 - - - - - - - - -
30/06:00am 20.9 ESE 6 8 1022.2 - - - - - - - - -
30/05:30am 20.9 ESE 4 7 1022.0 - - - - - - - - -
30/05:00am 20.8 S 3 6 1021.8 - - - - - - - - -
30/04:30am 20.5 CALM 0 0 1021.6 - - - - - - - - -
30/04:00am 20.7 N 11 15 1021.4 - - - - - - - - -
30/03:30am 20.7 NNE 6 9 1021.2 - - - - - - - - -
30/03:00am 20.7 NNE 5 6 1021.2 - - - - - - - - -
30/02:30am 20.8 N 9 13 1021.0 - - - - - - - - -
30/02:00am 20.8 NNE 7 10 1021.1 - - - - - - - - -
30/01:30am 20.8 E 4 6 1021.2 - - - - - - - - -
30/01:00am 20.8 ENE 2 6 1021.3 - - - - - - - - -
30/12:30am 21.0 ENE 6 14 1021.5 - - - - - - - - -
30/12:00am 20.8 NE 5 7 1021.6 - - - - - - - - -
 
Date/Time
EST
Temp

°C
Wind Pressure Rain
since 9am
mm
Weather Cloud Vis
km
Sea
Height
m
Swell
Dir
 
Speed
knots
Gust
knots
hPa Trend Height
m
Period
s
Dir
29/11:30pm 21.1 ESE 7 11 1021.7 - - - - - - - - -
29/11:00pm 21.1 SSE 8 12 1021.8 - - - - - - - - -
29/10:30pm 21.0 NE 5 7 1022.0 - - - - - - - - -
29/10:00pm 20.9 ENE 8 12 1022.1 - - - - - - - - -
29/09:30pm 20.6 NE 7 9 1022.1 - - - - - - - - -
29/09:00pm 21.0 E 9 11 1022.2 - - - - - - - - -
29/08:30pm 21.0 ENE 9 11 1022.1 - - - - - - - - -
29/08:00pm 20.9 ENE 8 10 1022.0 - - - - - - - - -
29/07:30pm 20.7 ENE 10 13 1021.8 - - - - - - - - -
29/07:00pm 20.9 E 10 12 1021.5 - - - - - - - - -
29/06:30pm 20.8 ENE 9 11 1021.2 - - - - - - - - -
29/06:00pm 20.8 E 9 11 1021.0 - - - - - - - - -
29/05:30pm 20.9 E 8 10 1020.9 - - - - - - - - -
29/05:00pm 21.0 ESE 8 11 1020.9 - - - - - - - - -
29/04:30pm 21.0 SE 9 11 1020.8 - - - - - - - - -
29/04:00pm 21.3 SE 8 10 1020.6 - - - - - - - - -
29/03:30pm 21.6 SSE 9 11 1020.5 - - - - - - - - -
29/03:00pm 21.6 SE 9 11 1020.4 - - - - - - - - -
29/02:30pm 21.7 SE 9 11 1020.2 - - - - - - - - -
29/02:00pm 22.2 ESE 7 9 1020.3 - - - - - - - - -
29/01:30pm 21.9 ESE 8 10 1020.5 - - - - - - - - -
29/01:00pm 22.2 SE 5 8 1020.9 - - - - - - - - -
29/12:30pm 23.0 SSE 4 5 1021.1 - - - - - - - - -
29/12:00pm 22.9 SSE 5 6 1021.4 - - - - - - - - -
29/11:30am 22.3 SE 7 8 1021.9 - - - - - - - - -
29/11:00am 22.1 ESE 8 10 1022.2 - - - - - - - - -
29/10:30am 21.8 ESE 8 9 1022.6 - - - - - - - - -
29/10:00am 21.8 ESE 8 10 1022.8 - - - - - - - - -
29/09:30am 21.9 ESE 6 8 1023.1 - - - - - - - - -
29/09:00am 21.7 E 10 12 1023.4 - - - - - - - - -
29/08:30am 20.9 SE 10 12 1023.3 - - - - - - - - -
29/08:00am 20.7 ESE 10 13 1023.0 - - - - - - - - -
29/07:30am 20.5 ESE 10 12 1022.6 - - - - - - - - -
29/07:00am 20.5 ESE 10 12 1022.4 - - - - - - - - -
29/06:30am 20.4 ENE 11 15 1022.1 - - - - - - - - -
29/06:00am 20.6 E 13 16 1021.7 - - - - - - - - -

Other Formats:

Comma delimited format used in spreadsheet applications
http://www.bom.gov.au/fwo/IDQ60701/IDQ60701.94394.axf

JavaScript Object Notation format (JSON) in row-major order
http://www.bom.gov.au/fwo/IDQ60701/IDQ60701.94394.json